Terminal Aerodrome Forecast
Issued by NWS

Home | Current Version | Previous Version | Text Only | Print | Product List | Glossary On
Versions: 1 2 3 4 5 6 7 8 9 10 11 12 13 14 15 16 17 18
779
FTUS41 KGYX 260300 AAB
TAFRKD
TAF AMD
KRKD 260300Z 2603/2624 VRB04KT 3SM BR OVC002
      TEMPO 2603/2606 1 1/2SM TSRA SCT002 OVC015CB
     FM260600 00000KT 1/4SM FG VV001
     FM261200 27003KT 4SM BR OVC003
     FM261400 29007G17KT P6SM SCT040
      AMD LTD TO CLD VIS AND WIND=

USA.gov is the U.S. government's official web portal to all federal, state and local government web resources and services.